createdAt,value
2022-11-27T00:01:03.207Z,12.5
2022-11-27T00:06:03.164Z,12.5
2022-11-27T00:11:03.094Z,12.5
2022-11-27T00:16:03.077Z,12.5
2022-11-27T00:21:03.064Z,13
2022-11-27T00:26:03.040Z,13
2022-11-27T00:31:03.034Z,13
2022-11-27T00:36:03.073Z,13
2022-11-27T00:41:02.989Z,13
2022-11-27T00:46:02.979Z,13.5
2022-11-27T00:51:02.950Z,13.5
2022-11-27T00:56:02.930Z,13
2022-11-27T01:01:02.922Z,13.5
2022-11-27T01:06:02.928Z,13
2022-11-27T01:11:02.883Z,13
2022-11-27T01:16:02.857Z,13
2022-11-27T01:21:02.843Z,13
2022-11-27T01:26:02.841Z,13
2022-11-27T01:31:02.833Z,13
2022-11-27T01:36:02.804Z,13
2022-11-27T01:41:02.842Z,13
2022-11-27T01:46:02.882Z,13
2022-11-27T01:51:02.783Z,13.5
2022-11-27T01:56:02.724Z,13.5
2022-11-27T02:01:02.731Z,13.5
2022-11-27T02:06:02.681Z,13.5
2022-11-27T02:11:02.683Z,13.5
2022-11-27T02:16:02.642Z,13.5
2022-11-27T02:21:02.699Z,13.5
2022-11-27T02:26:02.613Z,13.5
2022-11-27T02:31:02.611Z,14
2022-11-27T02:36:02.592Z,14
2022-11-27T02:41:02.563Z,14
2022-11-27T02:46:02.559Z,14
2022-11-27T02:51:02.531Z,14
2022-11-27T02:56:02.510Z,14
2022-11-27T03:01:02.507Z,14
2022-11-27T03:06:02.490Z,14
2022-11-27T03:11:02.451Z,14
2022-11-27T03:16:02.444Z,14
2022-11-27T03:21:02.480Z,14.5
2022-11-27T03:26:02.395Z,14.5
2022-11-27T03:31:02.421Z,14.5
2022-11-27T03:36:02.364Z,14.5
2022-11-27T03:41:02.404Z,15
2022-11-27T03:46:02.572Z,15
2022-11-27T03:51:02.364Z,15
2022-11-27T03:56:02.299Z,15
2022-11-27T04:01:02.391Z,15.5
2022-11-27T04:06:02.267Z,15
2022-11-27T04:11:02.245Z,15.5
2022-11-27T04:16:02.229Z,15
2022-11-27T04:21:02.260Z,15
2022-11-27T04:26:02.199Z,15
2022-11-27T04:31:02.237Z,15
2022-11-27T04:36:02.274Z,15
2022-11-27T04:41:02.148Z,15
2022-11-27T04:46:02.173Z,15
2022-11-27T04:51:02.106Z,14.5
2022-11-27T04:56:02.102Z,15
2022-11-27T05:01:02.083Z,15
2022-11-27T05:06:02.077Z,15
2022-11-27T05:11:02.055Z,15
2022-11-27T05:16:02.021Z,15
2022-11-27T05:21:02.042Z,15
2022-11-27T05:26:01.989Z,15
2022-11-27T05:31:01.973Z,15
2022-11-27T05:36:02.140Z,15
2022-11-27T05:41:02.089Z,15
2022-11-27T05:46:01.940Z,15
2022-11-27T05:51:01.964Z,15
2022-11-27T05:56:01.903Z,15
2022-11-27T06:01:01.871Z,15
2022-11-27T06:06:01.848Z,15
2022-11-27T06:11:01.834Z,15
2022-11-27T06:16:01.812Z,15
2022-11-27T06:21:01.803Z,15
2022-11-27T06:26:01.793Z,15
2022-11-27T06:31:01.795Z,15
2022-11-27T06:36:01.746Z,15
2022-11-27T06:41:01.727Z,15
2022-11-27T06:46:01.719Z,15
2022-11-27T06:51:01.719Z,15
2022-11-27T06:56:01.680Z,15
2022-11-27T07:01:01.660Z,15
2022-11-27T07:06:01.652Z,15
2022-11-27T07:11:01.641Z,15
2022-11-27T07:16:01.603Z,15
2022-11-27T07:21:01.589Z,15
2022-11-27T07:26:01.578Z,15
2022-11-27T07:31:01.579Z,15
2022-11-27T07:36:01.536Z,15
2022-11-27T07:41:01.605Z,15
2022-11-27T07:46:01.536Z,15
2022-11-27T07:51:01.485Z,15
2022-11-27T07:56:01.470Z,15
2022-11-27T08:01:01.468Z,14.5
2022-11-27T08:06:01.480Z,14.5
2022-11-27T08:11:01.435Z,14.5
2022-11-27T08:16:01.547Z,14.5
2022-11-27T08:21:01.450Z,14.5
2022-11-27T08:26:01.535Z,14.5
2022-11-27T08:31:01.362Z,14.5
2022-11-27T08:36:01.454Z,14.5
2022-11-27T08:41:01.308Z,14
2022-11-27T08:46:01.318Z,14.5
2022-11-27T08:56:01.329Z,14
2022-11-27T09:01:01.421Z,14
2022-11-27T09:06:01.236Z,14
2022-11-27T09:11:01.204Z,14
2022-11-27T09:16:01.380Z,13.5
2022-11-27T09:21:01.228Z,14
2022-11-27T09:26:01.296Z,13.5
2022-11-27T09:31:01.133Z,12.5
2022-11-27T09:36:01.108Z,12.5
2022-11-27T09:41:01.085Z,13.5
2022-11-27T09:46:01.168Z,13.5
2022-11-27T09:51:01.050Z,13
2022-11-27T09:56:01.138Z,13.5
2022-11-27T10:01:01.017Z,13
2022-11-27T10:06:01.041Z,13.5
2022-11-27T10:11:00.976Z,13.5
2022-11-27T10:16:00.955Z,13.5
2022-11-27T10:21:00.947Z,13.5
2022-11-27T10:26:01.188Z,13
2022-11-27T10:31:01.125Z,13.5
2022-11-27T10:36:00.892Z,13.5
2022-11-27T10:41:01.067Z,13.5
2022-11-27T10:46:01.075Z,14
2022-11-27T10:51:01.009Z,13.5
2022-11-27T10:56:01.001Z,13
2022-11-27T11:01:00.837Z,13
2022-11-27T11:06:00.776Z,13.5
2022-11-27T11:11:00.837Z,13
2022-11-27T11:16:00.756Z,13.5
2022-11-27T11:21:00.952Z,13.5
2022-11-27T11:26:00.882Z,13
2022-11-27T11:31:00.679Z,13
2022-11-27T11:36:00.786Z,12.5
2022-11-27T11:41:00.812Z,13
2022-11-27T11:46:00.688Z,12
2022-11-27T11:51:00.672Z,12.5
2022-11-27T11:56:00.673Z,12.5
2022-11-27T12:01:00.615Z,12.5
2022-11-27T12:06:00.555Z,12.5
2022-11-27T12:11:00.641Z,13
2022-11-27T12:16:00.658Z,13
2022-11-27T12:21:00.645Z,12
2022-11-27T12:26:00.639Z,13
2022-11-27T12:31:00.477Z,12.5
2022-11-27T12:36:00.636Z,12.5
2022-11-27T12:41:00.612Z,12.5
2022-11-27T12:46:00.660Z,13
2022-11-27T12:51:00.368Z,12.5
2022-11-27T12:56:00.553Z,13
2022-11-27T13:01:00.499Z,13
2022-11-27T13:06:00.501Z,13
2022-11-27T13:11:00.460Z,12.5
2022-11-27T13:16:00.280Z,13
2022-11-27T13:21:00.273Z,13
2022-11-27T13:26:00.315Z,13
2022-11-27T13:31:00.339Z,13
2022-11-27T13:36:00.219Z,12.5
2022-11-27T13:41:00.219Z,12.5
2022-11-27T13:46:00.169Z,12.5
2022-11-27T13:51:00.143Z,12.5
2022-11-27T13:56:00.143Z,13
2022-11-27T14:01:00.121Z,13
2022-11-27T14:06:00.097Z,12.5
2022-11-27T14:11:00.076Z,13
2022-11-27T14:16:00.117Z,13.5
2022-11-27T14:21:00.033Z,13
2022-11-27T14:26:00.159Z,13
2022-11-27T14:31:00.001Z,13
2022-11-27T14:36:00.040Z,13
2022-11-27T14:41:00.028Z,13
2022-11-27T14:46:00.036Z,13
2022-11-27T14:50:59.942Z,13
2022-11-27T14:55:59.922Z,13
2022-11-27T15:00:59.929Z,13
2022-11-27T15:05:59.900Z,13
2022-11-27T15:10:59.878Z,13
2022-11-27T15:15:59.832Z,13
2022-11-27T15:20:59.864Z,13
2022-11-27T15:25:59.902Z,13.5
2022-11-27T15:30:59.773Z,13.5
2022-11-27T15:35:59.823Z,13.5
2022-11-27T15:40:59.790Z,13
2022-11-27T15:45:59.709Z,13.5
2022-11-27T15:55:59.781Z,13.5
2022-11-27T16:00:59.775Z,13.5
2022-11-27T16:05:59.665Z,13
2022-11-27T16:10:59.659Z,13
2022-11-27T16:15:59.613Z,13
2022-11-27T16:20:59.669Z,13.5
2022-11-27T16:25:59.610Z,13
2022-11-27T16:30:59.584Z,13
2022-11-27T16:35:59.527Z,13
2022-11-27T16:40:59.517Z,13.5
2022-11-27T16:45:59.583Z,13.5
2022-11-27T16:50:59.475Z,13
2022-11-27T16:55:59.470Z,13.5
2022-11-27T17:00:59.523Z,13
2022-11-27T17:05:59.542Z,13
2022-11-27T17:10:59.540Z,13
2022-11-27T17:15:59.377Z,13
2022-11-27T17:20:59.464Z,13
2022-11-27T17:25:59.458Z,13
2022-11-27T17:30:59.462Z,13
2022-11-27T17:35:59.309Z,13
2022-11-27T17:40:59.291Z,13
2022-11-27T17:50:59.260Z,13
2022-11-27T17:55:59.232Z,13
2022-11-27T18:00:59.301Z,13
2022-11-27T18:05:59.291Z,13
2022-11-27T18:10:59.238Z,13
2022-11-27T18:15:59.158Z,13
2022-11-27T18:20:59.143Z,13
2022-11-27T18:25:59.355Z,12.5
2022-11-27T18:30:59.267Z,13
2022-11-27T18:35:59.251Z,13
2022-11-27T18:40:59.094Z,13
2022-11-27T18:45:59.058Z,13
2022-11-27T18:50:59.081Z,13
2022-11-27T18:55:59.079Z,13
2022-11-27T19:00:58.996Z,13
2022-11-27T19:05:59.087Z,13
2022-11-27T19:10:59.008Z,13
2022-11-27T19:15:59.007Z,13
2022-11-27T19:20:58.920Z,13
2022-11-27T19:25:59.010Z,13
2022-11-27T19:30:58.885Z,13
2022-11-27T19:35:58.871Z,13
2022-11-27T19:40:58.848Z,13
2022-11-27T19:45:58.825Z,13
2022-11-27T19:50:58.812Z,13
2022-11-27T19:55:58.790Z,13
2022-11-27T20:00:58.785Z,13.5
2022-11-27T20:05:58.749Z,13
2022-11-27T20:10:58.783Z,13
2022-11-27T20:15:58.722Z,13
2022-11-27T20:20:58.715Z,13.5
2022-11-27T20:25:58.680Z,13
2022-11-27T20:30:58.678Z,13.5
2022-11-27T20:35:58.648Z,13.5
2022-11-27T20:40:58.631Z,13
2022-11-27T20:45:58.645Z,14
2022-11-27T20:50:58.578Z,13.5
2022-11-27T20:55:58.590Z,13.5
2022-11-27T21:00:58.591Z,14
2022-11-27T21:05:58.529Z,13
2022-11-27T21:10:58.562Z,13.5
2022-11-27T21:15:58.533Z,13.5
2022-11-27T21:20:58.471Z,13.5
2022-11-27T21:25:58.502Z,13.5
2022-11-27T21:30:58.437Z,13.5
2022-11-27T21:35:58.468Z,13.5
2022-11-27T21:40:58.398Z,13.5
2022-11-27T21:45:58.378Z,13.5
2022-11-27T21:50:58.367Z,13.5
2022-11-27T21:55:58.340Z,13.5
2022-11-27T22:00:58.331Z,13.5
2022-11-27T22:05:58.308Z,13.5
2022-11-27T22:10:58.291Z,13.5
2022-11-27T22:15:58.291Z,13.5
2022-11-27T22:20:58.260Z,13.5
2022-11-27T22:25:58.222Z,13.5
2022-11-27T22:30:58.222Z,13.5
2022-11-27T22:35:58.201Z,13.5
2022-11-27T22:40:58.183Z,13.5
2022-11-27T22:45:58.164Z,13.5
2022-11-27T22:50:58.190Z,13.5
2022-11-27T22:55:58.128Z,13.5
2022-11-27T23:00:58.102Z,13.5
2022-11-27T23:05:58.088Z,13.5
2022-11-27T23:10:58.077Z,13.5
2022-11-27T23:15:58.060Z,13.5
2022-11-27T23:20:58.030Z,13.5
2022-11-27T23:25:58.009Z,13.5
2022-11-27T23:30:57.999Z,13.5
2022-11-27T23:35:57.999Z,14
2022-11-27T23:40:58.019Z,13.5
2022-11-27T23:45:57.945Z,13.5
2022-11-27T23:50:57.927Z,14
2022-11-27T23:55:57.911Z,14
